• Join FlightAware (Why Join?)
  • Login
  • US Flag 
10:13PM EDT


 

Airport Tracker/Info


-or-


 

Live Flight TrackerFlight Track Log ✈ EJA846 ✈ 25-Apr-2013 ✈ MYNN / NAS - KPBI

Flight Track Log - Related Links

Times and Time Zones

All times are in EDT time to prevent confusion due to time zone crossing. See the EJA846 flight status page for this flight to view local times or setup timezone preferences in your user account.

Time Position Orientation Groundspeed Altitude Reporting Facility
EDT Latitude Longitude Course Direction KTS MPH feet Rate Location/Type
10:16AM 24.9842 -77.3678 North 321 369 4,100  Level Miami Center
10:17AM 25.0533 -77.3636 North 223 257 6,200 2,400 Climbing Miami Center
10:18AM 25.0886 -77.4369 298° West 160 184 9,000 2,520 Climbing Miami Center
10:19AM 25.1133 -77.5358 285° West 238 274 11,300 1,500 Climbing Miami Center
10:20AM 25.1567 -77.6233 299° West 273 314 12,000 1,500 Climbing Miami Center
10:21AM 25.2128 -77.7019 308° West 310 357 14,400 1,800 Climbing Miami Center
10:22AM 25.2728 -77.7850 309° West 326 375 15,700 780 Climbing Miami Center
10:23AM 25.3369 -77.8706 310° West 353 406 16,000 120 Climbing Miami Center
10:24AM 25.3992 -77.9561 309° West 353 406 16,000  Level Miami Center
10:25AM 25.4528 -78.0325 308° West 353 406 16,000  Level Miami Center
10:26AM 25.5147 -78.1183 309° West 353 406 16,000  Level Miami Center
10:27AM 25.5789 -78.2019 310° West 353 406 16,000  Level Miami Center
10:28AM 25.6408 -78.2903 308° West 353 406 16,000  Level Miami Center
10:29AM 25.7047 -78.3717 311° West 353 406 16,000  Level Miami Center
10:30AM 25.7581 -78.4669 302° West 353 406 16,000  Level Miami Center
10:31AM 25.8133 -78.5531 306° West 353 406 16,000  Level Miami Center
10:32AM 25.8667 -78.6486 302° West 353 406 16,000  Level Miami Center
10:33AM 25.9197 -78.7394 303° West 353 406 16,000  Level Miami Center
10:34AM 25.9731 -78.8258 304° West 353 406 16,000 -660 Level Miami Center
10:35AM 26.0239 -78.9214 301° West 340 391 14,700 -1,500 Descending Miami Center
10:36AM 26.0750 -79.0103 303° West 335 386 13,100 -1,620 Descending Miami Center
10:37AM 26.1236 -79.0992 301° West 340 391 11,500 -1,560 Descending Miami Center
10:38AM 26.1725 -79.1833 303° West 340 391 10,000 -1,500 Descending Miami Center
10:39AM 26.2153 -79.2558 303° West 314 361 8,500 -1,380 Descending Miami Center
10:40AM 26.2581 -79.3286 303° West 296 341 7,300 -1,200 Descending Miami Center
10:41AM 26.2944 -79.3989 300° West 283 326 6,100 -1,200 Descending Miami Center
10:42AM 26.3347 -79.4717 302° West 277 319 5,000 -600 Descending Miami Center
10:43AM 26.3733 -79.5419 302° West 271 312 5,000  Level Miami Center
10:44AM 26.4097 -79.6078 302° West 271 312 5,000  Level Miami Center
10:45AM 26.4542 -79.6878 302° West 276 318 5,000  Level Miami Center
10:46AM 26.4903 -79.7536 302° West 276 318 5,000 -300 Level Miami Center
10:47AM 26.5178 -79.8403 290° West 271 312 4,400 -540 Descending Miami Center
10:48AM 26.5311 -79.9125 282° West 276 318 4,000 -240 Descending Miami Center
10:49AM 26.5458 -80.0011 281° West 269 310 4,000  Level Miami Center
10:50AM 26.5589 -80.0711 282° West 263 303 4,000 -300 Level Miami Center
10:51AM 26.5886 -80.1464 294° West 250 288 3,400 -600 Descending Miami Center
10:53AM 26.6667 -80.0833 North  Level FlightAware Approximate
11:00AM 26.6832 -80.0956 North  Level Estimated
11:01AM 26.6832 -80.0956 North  Level Estimated
11:02AM 26.6832 -80.0956 North  Level Estimated
11:03AM 26.6832 -80.0956 North  Level Estimated